Time;durP1;ratioP1;P1;durP2;ratioP2;P2;SDS_P1;SDS_P2;PMS_P1;PMS_P2;Temp;Humidity;BMP_temperature;BMP_pressure;BME280_temperature;BME280_humidity;BME280_pressure;Samples;Min_cycle;Max_cycle;Signal;HPM_P1;HPM_P2
2022/09/07 00:00:51;;;;;;;30.90;9.40;;;19.70;99.90;;;;;;5051373;28;20041;-60
2022/09/07 00:03:17;;;;;;;12.68;7.57;;;19.70;99.90;;;;;;5050678;28;20276;-58
2022/09/07 00:05:45;;;;;;;10.05;4.13;;;19.70;99.90;;;;;;5051578;28;20049;-59
2022/09/07 00:08:11;;;;;;;7.28;2.30;;;19.60;99.90;;;;;;5041650;28;20128;-58
2022/09/07 00:10:37;;;;;;;11.93;2.28;;;19.60;99.90;;;;;;5048240;28;20237;-58
2022/09/07 00:13:04;;;;;;;9.63;2.00;;;19.50;99.90;;;;;;5048642;28;20051;-57
2022/09/07 00:15:29;;;;;;;8.10;1.90;;;19.30;99.90;;;;;;5044758;28;20037;-58
2022/09/07 00:17:55;;;;;;;11.52;2.05;;;19.20;99.90;;;;;;5047143;28;20048;-57
2022/09/07 00:20:21;;;;;;;5.63;2.05;;;19.00;99.90;;;;;;5033405;28;20125;-57
2022/09/07 00:22:46;;;;;;;5.63;1.83;;;18.90;99.90;;;;;;5032512;28;20426;-58
2022/09/07 00:25:12;;;;;;;11.95;2.33;;;18.80;99.90;;;;;;5032766;28;20041;-57
2022/09/07 00:27:38;;;;;;;11.70;2.45;;;18.90;99.90;;;;;;5034476;28;20041;-57
2022/09/07 00:30:05;;;;;;;11.68;2.20;;;18.80;99.90;;;;;;5050174;28;20037;-58
2022/09/07 00:32:31;;;;;;;9.48;1.90;;;18.90;99.90;;;;;;5027868;28;20041;-57
2022/09/07 00:34:56;;;;;;;9.98;2.20;;;18.70;99.90;;;;;;5051100;28;20049;-57
2022/09/07 00:37:22;;;;;;;13.77;2.60;;;18.60;99.90;;;;;;5047813;28;20041;-60
2022/09/07 00:39:48;;;;;;;15.02;2.08;;;18.50;99.90;;;;;;5039176;28;20045;-58
2022/09/07 00:42:17;;;;;;;7.68;2.20;;;18.40;99.90;;;;;;5051295;28;20048;-59
2022/09/07 00:44:42;;;;;;;12.40;2.55;;;18.30;99.90;;;;;;5043896;28;20495;-58
2022/09/07 00:47:43;;;;;;;13.48;2.67;;;18.30;99.90;;;;;;5052479;28;20033;-58
2022/09/07 00:50:19;;;;;;;15.60;2.85;;;18.20;99.90;;;;;;5050914;28;20037;-58
2022/09/07 00:52:48;;;;;;;17.90;2.92;;;18.20;99.90;;;;;;5044109;28;20041;-58
2022/09/07 00:55:15;;;;;;;17.60;2.85;;;18.40;99.90;;;;;;5033114;28;20052;-59
2022/09/07 00:57:46;;;;;;;22.40;3.75;;;18.10;99.90;;;;;;5051229;28;20470;-58
2022/09/07 01:00:12;;;;;;;22.90;3.17;;;18.00;99.90;;;;;;5046559;28;20044;-58
2022/09/07 01:02:39;;;;;;;22.27;3.17;;;18.00;99.90;;;;;;5040129;28;20444;-58
2022/09/07 01:05:21;;;;;;;20.35;2.95;;;18.20;99.90;;;;;;5051010;28;20513;-59
2022/09/07 01:07:46;;;;;;;18.02;3.20;;;18.00;99.90;;;;;;5041924;28;20152;-59
2022/09/07 01:10:13;;;;;;;24.10;4.40;;;17.90;99.90;;;;;;5050350;28;20044;-57
2022/09/07 01:12:38;;;;;;;15.70;2.70;;;18.20;99.90;;;;;;5050696;28;20051;-59
2022/09/07 01:15:05;;;;;;;18.15;2.88;;;17.90;99.90;;;;;;5043200;28;20038;-58
2022/09/07 01:17:40;;;;;;;15.95;3.22;;;18.20;99.90;;;;;;5051552;28;20045;-57
2022/09/07 01:20:31;;;;;;;32.67;3.20;;;18.20;99.90;;;;;;5022388;28;20078;-58
2022/09/07 01:23:35;;;;;;;15.57;2.90;;;18.00;99.90;;;;;;5038540;28;20072;-58
2022/09/07 01:26:19;;;;;;;18.50;2.80;;;18.30;99.90;;;;;;5048444;28;20045;-58
2022/09/07 01:28:48;;;;;;;13.48;2.88;;;18.00;99.90;;;;;;5044665;28;20505;-58
2022/09/07 01:31:41;;;;;;;14.10;3.05;;;18.10;99.90;;;;;;5035515;28;20037;-59
2022/09/07 01:34:21;;;;;;;17.30;3.70;;;18.40;99.90;;;;;;5050530;28;20103;-58
2022/09/07 01:36:56;;;;;;;15.20;3.10;;;18.40;99.90;;;;;;5051146;28;20064;-58
2022/09/07 01:39:29;;;;;;;22.15;3.38;;;18.20;99.90;;;;;;5038230;28;20123;-58
2022/09/07 01:42:05;;;;;;;17.15;3.40;;;18.10;99.90;;;;;;5038276;28;20041;-58
2022/09/07 01:44:40;;;;;;;20.88;4.22;;;18.10;99.90;;;;;;5051711;28;20041;-58
2022/09/07 01:47:14;;;;;;;22.58;3.72;;;18.40;99.90;;;;;;5055466;28;20045;-57
2022/09/07 01:49:49;;;;;;;14.93;3.22;;;18.30;99.90;;;;;;5035128;28;20045;-59
2022/09/07 01:52:38;;;;;;;16.67;3.10;;;18.10;99.90;;;;;;5037297;28;20056;-59
2022/09/07 01:55:26;;;;;;;13.10;2.72;;;18.10;99.90;;;;;;5054976;28;20068;-58
2022/09/07 01:58:07;;;;;;;18.80;3.00;;;18.20;99.90;;;;;;5040196;28;20085;-58
2022/09/07 02:00:34;;;;;;;13.55;2.42;;;18.00;99.90;;;;;;5046702;28;20387;-59
2022/09/07 02:03:27;;;;;;;10.73;3.08;;;18.20;99.90;;;;;;5054272;28;20110;-58
2022/09/07 02:06:18;;;;;;;12.55;2.65;;;17.90;99.90;;;;;;5054628;28;20057;-58
2022/09/07 02:08:56;;;;;;;9.10;2.30;;;18.10;99.90;;;;;;5039749;28;20033;-59
2022/09/07 02:11:39;;;;;;;17.38;2.80;;;18.10;99.90;;;;;;5049267;28;20120;-58
2022/09/07 02:14:14;;;;;;;8.98;2.50;;;17.80;99.90;;;;;;5035239;28;20499;-58
2022/09/07 02:16:55;;;;;;;8.23;2.22;;;17.80;99.90;;;;;;5041607;28;20037;-57
2022/09/07 02:19:24;;;;;;;7.03;2.08;;;17.90;99.90;;;;;;5050062;28;20090;-59
2022/09/07 02:21:59;;;;;;;7.18;2.05;;;17.80;99.90;;;;;;5036449;28;20124;-58
2022/09/07 02:24:30;;;;;;;7.83;1.77;;;18.10;99.90;;;;;;5054688;28;20033;-58
2022/09/07 02:26:58;;;;;;;7.40;2.25;;;17.80;99.90;;;;;;5049943;28;20348;-58
2022/09/07 02:29:24;;;;;;;10.65;2.00;;;17.80;99.90;;;;;;5048210;28;20041;-59
2022/09/07 02:31:50;;;;;;;9.82;2.10;;;17.80;99.90;;;;;;5052070;28;20482;-59
2022/09/07 02:34:16;;;;;;;10.45;1.98;;;18.20;99.90;;;;;;5051609;28;20040;-58
2022/09/07 02:36:47;;;;;;;3.78;1.50;;;17.90;99.90;;;;;;5042215;28;20040;-57
2022/09/07 02:39:13;;;;;;;8.40;2.00;;;18.20;99.90;;;;;;5019508;28;20406;-58
2022/09/07 02:41:41;;;;;;;9.32;1.55;;;17.90;99.90;;;;;;5045505;28;20056;-58
2022/09/07 02:44:14;;;;;;;2.67;1.42;;;17.80;99.90;;;;;;5054006;28;20052;-61
2022/09/07 02:47:05;;;;;;;7.88;1.70;;;17.80;99.90;;;;;;5053815;28;20044;-58
2022/09/07 02:49:40;;;;;;;3.95;1.67;;;17.80;99.90;;;;;;5052306;28;20122;-58
2022/09/07 02:52:09;;;;;;;5.10;1.58;;;18.20;99.90;;;;;;5053774;28;20080;-57
2022/09/07 02:55:08;;;;;;;4.95;1.60;;;17.90;99.90;;;;;;5052871;28;20120;-58
2022/09/07 02:57:52;;;;;;;5.95;1.83;;;18.00;99.90;;;;;;5028968;28;20057;-58
2022/09/07 03:00:24;;;;;;;5.75;1.92;;;17.80;99.90;;;;;;5020119;28;20049;-58
2022/09/07 03:03:04;;;;;;;7.03;2.08;;;18.30;99.90;;;;;;5053089;28;20036;-58
2022/09/07 03:05:41;;;;;;;10.30;2.85;;;18.00;99.90;;;;;;5053252;28;20128;-58
2022/09/07 03:08:17;;;;;;;11.50;2.30;;;17.90;99.90;;;;;;5053194;28;20036;-58
2022/09/07 03:10:43;;;;;;;6.63;1.92;;;17.80;99.90;;;;;;5049448;28;20057;-58
2022/09/07 03:13:22;;;;;;;11.32;2.15;;;18.30;99.90;;;;;;5048180;28;20137;-59
2022/09/07 03:15:47;;;;;;;12.32;2.03;;;17.90;99.90;;;;;;5052770;28;20045;-58
2022/09/07 03:18:13;;;;;;;8.20;2.20;;;17.90;99.90;;;;;;5035324;28;20147;-58
2022/09/07 03:20:38;;;;;;;13.85;2.13;;;17.90;99.90;;;;;;5053121;28;20124;-58
2022/09/07 03:23:04;;;;;;;6.63;1.98;;;18.20;99.90;;;;;;5048657;28;20494;-57
2022/09/07 03:25:29;;;;;;;9.00;2.20;;;18.20;99.90;;;;;;5052524;28;20128;-59
2022/09/07 03:27:55;;;;;;;12.73;2.50;;;18.40;99.90;;;;;;5038505;28;20037;-57
2022/09/07 03:30:21;;;;;;;5.80;2.20;;;18.10;99.90;;;;;;5052661;28;20029;-57
2022/09/07 03:32:46;;;;;;;12.65;2.60;;;17.90;99.90;;;;;;5052201;28;20041;-58
2022/09/07 03:35:12;;;;;;;7.72;2.65;;;18.20;99.90;;;;;;5052376;28;20452;-58
2022/09/07 03:37:38;;;;;;;8.30;2.38;;;17.90;99.90;;;;;;5031214;28;20067;-58
2022/09/07 03:40:06;;;;;;;10.35;2.65;;;17.90;99.90;;;;;;5051895;28;20123;-58
2022/09/07 03:42:31;;;;;;;19.55;3.53;;;18.30;99.90;;;;;;5034817;28;20041;-58
2022/09/07 03:44:57;;;;;;;10.48;2.80;;;18.00;99.90;;;;;;5046097;28;20039;-58
2022/09/07 03:47:22;;;;;;;13.13;2.58;;;17.80;99.90;;;;;;5037317;28;20446;-57
2022/09/07 03:49:50;;;;;;;9.25;3.13;;;17.90;99.90;;;;;;5038533;28;20054;-58
2022/09/07 03:52:16;;;;;;;11.10;2.80;;;18.00;99.90;;;;;;5041328;28;20052;-57
2022/09/07 03:54:41;;;;;;;7.43;2.42;;;17.80;99.90;;;;;;5052772;28;20067;-58
2022/09/07 03:57:07;;;;;;;7.93;3.20;;;18.00;99.90;;;;;;5034462;28;20053;-58
2022/09/07 03:59:33;;;;;;;6.30;2.42;;;18.10;99.90;;;;;;5051683;28;20383;-59
2022/09/07 04:01:59;;;;;;;11.65;2.60;;;17.80;99.90;;;;;;5051683;28;20033;-59
2022/09/07 04:04:24;;;;;;;8.05;2.60;;;17.90;99.90;;;;;;5032407;28;20107;-59
2022/09/07 04:06:50;;;;;;;10.88;2.25;;;17.90;99.90;;;;;;5051034;28;20041;-58
2022/09/07 04:09:15;;;;;;;10.23;2.38;;;17.90;99.90;;;;;;5040507;28;20056;-59
2022/09/07 04:11:41;;;;;;;10.23;3.45;;;18.30;99.90;;;;;;5045513;28;20135;-58
2022/09/07 04:14:08;;;;;;;8.57;3.53;;;18.00;99.90;;;;;;5052287;28;20048;-57
2022/09/07 04:16:34;;;;;;;11.63;3.38;;;18.40;99.90;;;;;;5047105;28;20498;-58
2022/09/07 04:19:00;;;;;;;8.00;2.60;;;18.00;99.90;;;;;;5039168;28;20094;-58
2022/09/07 04:21:27;;;;;;;7.43;2.25;;;18.40;99.90;;;;;;5047142;28;20478;-57
2022/09/07 04:23:53;;;;;;;6.07;2.08;;;18.40;99.90;;;;;;5047853;28;20029;-57
2022/09/07 04:26:22;;;;;;;10.02;2.60;;;18.40;99.90;;;;;;5051864;28;20418;-57
2022/09/07 04:28:48;;;;;;;7.38;2.50;;;18.40;99.90;;;;;;5051827;28;20033;-58
2022/09/07 04:31:14;;;;;;;6.35;2.50;;;18.00;99.90;;;;;;5050898;28;20112;-57
2022/09/07 04:33:44;;;;;;;7.63;2.70;;;17.90;99.90;;;;;;5050204;28;20079;-58
2022/09/07 04:36:10;;;;;;;4.95;2.28;;;18.10;99.90;;;;;;5028504;28;20534;-58
2022/09/07 04:38:38;;;;;;;8.18;2.38;;;18.20;99.90;;;;;;5034274;28;20036;-57
2022/09/07 04:41:09;;;;;;;5.78;2.15;;;18.00;99.90;;;;;;5051626;28;20440;-57
2022/09/07 04:43:37;;;;;;;11.15;2.80;;;18.30;99.90;;;;;;5047342;28;20486;-57
2022/09/07 04:46:09;;;;;;;7.10;2.42;;;18.30;99.90;;;;;;5050683;28;20526;-58
2022/09/07 04:48:35;;;;;;;9.48;2.92;;;18.00;99.90;;;;;;5051715;28;20033;-58
2022/09/07 04:51:05;;;;;;;11.02;2.17;;;18.00;99.90;;;;;;5045782;28;20035;-57
2022/09/07 04:53:32;;;;;;;6.97;2.13;;;18.40;99.90;;;;;;5044275;28;20486;-59
2022/09/07 04:55:58;;;;;;;8.85;2.80;;;18.40;99.90;;;;;;5051787;28;20037;-58
2022/09/07 04:58:24;;;;;;;6.05;2.38;;;18.10;99.90;;;;;;5030441;28;20040;-57
2022/09/07 05:00:50;;;;;;;8.32;2.13;;;18.00;99.90;;;;;;5049122;28;20509;-58
2022/09/07 05:03:15;;;;;;;5.88;2.33;;;18.50;99.90;;;;;;5050823;28;20149;-58
2022/09/07 05:05:41;;;;;;;11.25;2.70;;;18.20;99.90;;;;;;5050662;28;20045;-57
2022/09/07 05:08:06;;;;;;;9.80;2.95;;;18.30;99.90;;;;;;5041228;28;20076;-58
2022/09/07 05:10:32;;;;;;;7.90;3.10;;;18.40;99.90;;;;;;5024316;28;20089;-58
2022/09/07 05:12:58;;;;;;;11.00;2.90;;;18.40;99.90;;;;;;5037169;28;20083;-57
2022/09/07 05:15:24;;;;;;;10.95;2.90;;;18.40;99.90;;;;;;5044055;28;20048;-59
2022/09/07 05:17:50;;;;;;;9.48;3.05;;;18.20;99.90;;;;;;5050927;28;20056;-58
2022/09/07 05:20:18;;;;;;;6.40;3.05;;;18.00;99.90;;;;;;5045087;28;20171;-57
2022/09/07 05:22:44;;;;;;;8.23;2.75;;;18.10;99.90;;;;;;5032656;28;20073;-57
2022/09/07 05:25:10;;;;;;;9.20;2.80;;;18.40;99.90;;;;;;5039501;28;20040;-58
2022/09/07 05:27:35;;;;;;;8.70;2.75;;;18.00;99.90;;;;;;5032908;28;20033;-58
2022/09/07 05:30:01;;;;;;;7.38;2.42;;;18.50;99.90;;;;;;5037656;28;20029;-58
2022/09/07 05:32:27;;;;;;;7.55;2.78;;;18.20;99.90;;;;;;5049117;28;20091;-57
2022/09/07 05:34:52;;;;;;;8.40;3.03;;;18.50;99.90;;;;;;5030991;28;20040;-58
2022/09/07 05:37:18;;;;;;;6.68;2.83;;;18.00;99.90;;;;;;5045572;28;20045;-59
2022/09/07 05:39:43;;;;;;;9.35;3.13;;;18.20;99.90;;;;;;5030007;28;20040;-58
2022/09/07 05:42:09;;;;;;;10.52;2.88;;;17.90;99.90;;;;;;5047977;28;20047;-57
2022/09/07 05:44:34;;;;;;;15.00;3.40;;;18.40;99.90;;;;;;5048465;28;20414;-59
2022/09/07 05:47:00;;;;;;;12.00;3.40;;;18.40;99.90;;;;;;5050733;28;20512;-57
2022/09/07 05:49:25;;;;;;;14.45;3.97;;;18.30;99.90;;;;;;5046268;28;20043;-57
2022/09/07 05:51:51;;;;;;;17.13;4.30;;;18.50;99.90;;;;;;5049014;28;20045;-57
2022/09/07 05:54:17;;;;;;;12.77;4.30;;;18.40;99.90;;;;;;5056739;28;20041;-58
2022/09/07 05:56:42;;;;;;;13.15;4.10;;;18.40;99.90;;;;;;5049377;28;20037;-57
2022/09/07 05:59:08;;;;;;;9.38;4.40;;;18.40;99.90;;;;;;5047473;28;20035;-58
2022/09/07 06:01:34;;;;;;;13.15;4.38;;;18.30;99.90;;;;;;5031602;28;20106;-58
2022/09/07 06:04:00;;;;;;;14.90;4.75;;;18.60;99.90;;;;;;5038957;28;20518;-57
2022/09/07 06:06:26;;;;;;;13.15;4.70;;;18.20;99.90;;;;;;5047299;28;20068;-58
2022/09/07 06:08:53;;;;;;;9.93;4.47;;;18.60;99.90;;;;;;5045346;28;20048;-57
2022/09/07 06:11:23;;;;;;;17.92;4.28;;;18.50;99.90;;;;;;5050493;28;20045;-57
2022/09/07 06:13:49;;;;;;;10.85;4.20;;;18.40;99.90;;;;;;5048716;28;20486;-58
2022/09/07 06:16:17;;;;;;;11.30;3.63;;;18.70;99.90;;;;;;5046695;28;20033;-58
2022/09/07 06:18:44;;;;;;;15.13;3.97;;;18.60;99.90;;;;;;5041439;28;20041;-57
2022/09/07 06:21:13;;;;;;;13.88;4.13;;;18.80;99.90;;;;;;5048009;28;20120;-56
2022/09/07 06:23:40;;;;;;;12.50;3.85;;;18.30;99.90;;;;;;5031166;28;20037;-58
2022/09/07 06:26:06;;;;;;;16.40;4.05;;;18.40;99.90;;;;;;5048897;28;20033;-57
2022/09/07 06:28:38;;;;;;;9.02;3.83;;;18.40;99.90;;;;;;5047821;28;20489;-57
2022/09/07 06:31:15;;;;;;;11.75;4.53;;;18.40;99.90;;;;;;5053220;28;20080;-56
2022/09/07 06:33:43;;;;;;;9.85;4.03;;;18.70;99.90;;;;;;5051101;28;20025;-57
2022/09/07 06:36:12;;;;;;;14.63;4.50;;;18.70;99.90;;;;;;5032975;28;20044;-57
2022/09/07 06:38:38;;;;;;;8.95;4.10;;;19.00;99.90;;;;;;5056389;28;20041;-58
2022/09/07 06:41:09;;;;;;;19.02;4.68;;;19.00;99.90;;;;;;5034655;28;20993;-58
2022/09/07 06:43:36;;;;;;;12.43;3.80;;;19.20;99.90;;;;;;5051389;28;20040;-60
2022/09/07 06:46:02;;;;;;;11.77;3.97;;;18.80;99.90;;;;;;5052102;28;20376;-56
2022/09/07 06:48:28;;;;;;;17.40;3.92;;;19.10;99.90;;;;;;5048475;28;20098;-58
2022/09/07 06:50:55;;;;;;;14.02;3.83;;;19.00;99.90;;;;;;5031738;28;20037;-57
2022/09/07 06:53:20;;;;;;;11.38;4.00;;;19.50;99.90;;;;;;5050661;28;20040;-57
2022/09/07 06:55:46;;;;;;;12.95;3.33;;;19.60;99.90;;;;;;5050768;28;20114;-58
2022/09/07 06:58:12;;;;;;;11.88;3.85;;;19.60;99.90;;;;;;5022263;28;20418;-57
2022/09/07 07:00:37;;;;;;;10.30;3.92;;;19.70;99.90;;;;;;5052520;28;20387;-57
2022/09/07 07:03:03;;;;;;;5.50;3.10;;;19.70;99.90;;;;;;5017039;28;20037;-57
2022/09/07 07:05:30;;;;;;;10.88;3.13;;;19.80;99.90;;;;;;5053006;28;20044;-57
2022/09/07 07:07:56;;;;;;;7.95;3.83;;;19.60;99.90;;;;;;5049742;28;20036;-57
2022/09/07 07:10:22;;;;;;;7.38;3.92;;;19.50;99.90;;;;;;5034944;28;20045;-57
2022/09/07 07:12:48;;;;;;;12.18;4.88;;;19.50;99.90;;;;;;5046187;28;20128;-58
2022/09/07 07:15:13;;;;;;;11.85;4.60;;;19.70;99.90;;;;;;5052465;28;20479;-57
2022/09/07 07:17:39;;;;;;;7.97;4.25;;;20.00;99.90;;;;;;5046308;28;20033;-57
2022/09/07 07:20:05;;;;;;;7.25;3.60;;;20.00;99.90;;;;;;5048751;28;20037;-57
2022/09/07 07:22:31;;;;;;;10.25;3.90;;;19.80;99.90;;;;;;5052447;28;20103;-57
2022/09/07 07:24:57;;;;;;;5.03;3.90;;;19.90;99.90;;;;;;5052784;28;20068;-58
2022/09/07 07:27:22;;;;;;;9.55;4.45;;;20.00;99.90;;;;;;5048579;28;20376;-57
2022/09/07 07:29:48;;;;;;;6.68;3.97;;;19.70;99.90;;;;;;5051838;28;20091;-58
2022/09/07 07:32:14;;;;;;;8.40;4.47;;;20.00;99.90;;;;;;5052601;28;20060;-57
2022/09/07 07:34:40;;;;;;;5.63;3.90;;;19.80;99.90;;;;;;5052421;28;20079;-58
2022/09/07 07:37:05;;;;;;;5.90;3.97;;;19.80;99.90;;;;;;5052442;28;20475;-58
2022/09/07 07:39:31;;;;;;;5.85;3.90;;;20.10;99.90;;;;;;5051401;28;20534;-58
2022/09/07 07:41:56;;;;;;;8.00;4.40;;;19.80;99.90;;;;;;5052908;28;20080;-57
2022/09/07 07:44:22;;;;;;;6.65;4.75;;;20.00;99.90;;;;;;5052481;28;20048;-58
2022/09/07 07:46:49;;;;;;;7.00;4.15;;;20.20;99.90;;;;;;5040863;28;20037;-57
2022/09/07 07:49:15;;;;;;;9.73;4.78;;;20.10;99.90;;;;;;5050392;28;20119;-58
2022/09/07 07:51:40;;;;;;;6.00;4.10;;;20.30;99.90;;;;;;5052809;28;20075;-59
2022/09/07 07:54:06;;;;;;;7.30;4.70;;;20.10;99.90;;;;;;5051560;28;20037;-57
2022/09/07 07:56:32;;;;;;;8.25;4.13;;;20.30;99.90;;;;;;5052915;28;20040;-57
2022/09/07 07:58:57;;;;;;;12.45;5.68;;;20.30;99.90;;;;;;5050828;28;20033;-57
2022/09/07 08:01:23;;;;;;;7.30;4.78;;;20.30;99.90;;;;;;5051032;28;20037;-58
2022/09/07 08:03:49;;;;;;;11.15;4.93;;;20.00;99.90;;;;;;5050766;28;20398;-58
2022/09/07 08:06:17;;;;;;;7.15;4.60;;;20.50;99.90;;;;;;5039014;28;20044;-58
2022/09/07 08:08:44;;;;;;;6.88;4.00;;;20.70;99.90;;;;;;5049739;28;20033;-57
2022/09/07 08:11:16;;;;;;;7.68;3.88;;;21.40;99.90;;;;;;5030336;28;20045;-59
2022/09/07 08:13:42;;;;;;;11.90;4.55;;;21.50;99.90;;;;;;5051904;28;20029;-57
2022/09/07 08:16:09;;;;;;;4.53;3.75;;;21.90;99.90;;;;;;5033698;28;20444;-57
2022/09/07 08:18:36;;;;;;;7.78;3.97;;;22.10;99.90;;;;;;5044769;28;20056;-58
2022/09/07 08:21:04;;;;;;;7.47;4.15;;;22.00;99.90;;;;;;5047402;28;20106;-57
2022/09/07 08:23:31;;;;;;;8.27;4.32;;;22.10;99.90;;;;;;5051483;28;20036;-57
2022/09/07 08:25:57;;;;;;;7.68;4.00;;;22.40;99.90;;;;;;5051523;28;20445;-57
2022/09/07 08:28:27;;;;;;;9.38;3.90;;;22.80;99.90;;;;;;5048435;28;20410;-58
2022/09/07 08:30:53;;;;;;;7.28;4.07;;;22.90;99.90;;;;;;5047857;28;20116;-57
2022/09/07 08:33:19;;;;;;;6.03;3.65;;;22.90;99.90;;;;;;5044625;28;20040;-59
2022/09/07 08:35:59;;;;;;;8.90;3.53;;;23.10;99.90;;;;;;5049013;28;20075;-58
2022/09/07 08:38:27;;;;;;;7.35;3.58;;;23.00;99.90;;;;;;5044934;28;20045;-57
2022/09/07 08:40:53;;;;;;;5.18;3.33;;;23.20;99.90;;;;;;5039934;28;20069;-58
2022/09/07 08:43:48;;;;;;;6.53;3.00;;;23.10;99.90;;;;;;5038327;28;20560;-59
2022/09/07 08:46:23;;;;;;;5.68;2.80;;;23.20;99.90;;;;;;5048715;28;20079;-59
2022/09/07 08:48:49;;;;;;;3.78;2.97;;;23.30;99.90;;;;;;5039779;28;20116;-57
2022/09/07 08:51:40;;;;;;;4.18;2.40;;;23.30;99.90;;;;;;5044832;28;20120;-57
2022/09/07 08:54:11;;;;;;;8.18;3.00;;;23.50;99.90;;;;;;5032570;28;20040;-57
2022/09/07 08:56:41;;;;;;;6.60;3.00;;;23.50;99.90;;;;;;5051271;28;20735;-58
2022/09/07 08:59:45;;;;;;;4.50;2.60;;;23.40;99.90;;;;;;5040884;28;20180;-58
2022/09/07 09:02:14;;;;;;;7.57;2.63;;;23.30;99.90;;;;;;5029257;28;20072;-57
2022/09/07 09:04:41;;;;;;;5.28;2.65;;;23.30;99.90;;;;;;5023806;28;20057;-57
2022/09/07 09:07:26;;;;;;;3.15;2.15;;;23.80;99.90;;;;;;5043294;28;20032;-58
2022/09/07 09:10:12;;;;;;;3.03;2.08;;;23.90;99.90;;;;;;5043024;28;20021;-57
2022/09/07 09:13:02;;;;;;;7.28;2.30;;;24.00;99.90;;;;;;5037189;28;20045;-57
2022/09/07 09:15:46;;;;;;;3.95;1.48;;;24.10;99.90;;;;;;5050915;28;20040;-57
2022/09/07 09:18:32;;;;;;;3.00;1.67;;;24.10;99.90;;;;;;5041951;28;20077;-57
2022/09/07 09:20:58;;;;;;;5.75;2.75;;;24.40;99.90;;;;;;5045058;28;20055;-58
2022/09/07 09:23:33;;;;;;;4.93;1.60;;;24.60;99.90;;;;;;5031368;28;20045;-59
2022/09/07 09:26:16;;;;;;;5.40;2.00;;;24.30;99.90;;;;;;5035520;28;20075;-58
2022/09/07 09:28:42;;;;;;;4.22;1.90;;;24.50;99.90;;;;;;5033357;28;20045;-57
2022/09/07 09:31:20;;;;;;;5.43;1.88;;;24.60;99.90;;;;;;5048003;28;20043;-57
2022/09/07 09:34:05;;;;;;;4.15;2.15;;;24.50;99.90;;;;;;5049355;28;20029;-57
2022/09/07 09:36:46;;;;;;;5.43;1.80;;;24.50;99.90;;;;;;5048450;28;20544;-57
2022/09/07 09:39:28;;;;;;;3.85;1.80;;;24.60;99.90;;;;;;5042771;28;20033;-58
2022/09/07 09:42:11;;;;;;;3.63;1.60;;;24.80;99.90;;;;;;5049332;28;20088;-58
2022/09/07 09:44:38;;;;;;;2.50;1.40;;;25.60;99.90;;;;;;5048379;28;20051;-58
2022/09/07 09:47:05;;;;;;;4.75;1.40;;;25.60;99.90;;;;;;5050509;28;20079;-59
2022/09/07 09:49:37;;;;;;;5.03;1.70;;;26.00;99.90;;;;;;5046204;28;20043;-58
2022/09/07 09:52:12;;;;;;;4.28;1.30;;;26.20;1.00;;;;;;5049718;28;20040;-57
2022/09/07 09:54:42;;;;;;;4.90;1.50;;;26.10;73.30;;;;;;5049976;28;20086;-58
2022/09/07 09:57:37;;;;;;;4.53;1.48;;;25.80;1.00;;;;;;5032575;28;20077;-57
2022/09/07 10:00:05;;;;;;;4.60;1.70;;;25.50;1.00;;;;;;5028101;28;20407;-58
2022/09/07 10:02:32;;;;;;;4.05;1.40;;;26.00;1.00;;;;;;5041546;28;20494;-58
2022/09/07 10:04:57;;;;;;;5.35;1.33;;;26.30;99.90;;;;;;5049668;28;20045;-58
2022/09/07 10:07:28;;;;;;;4.68;1.40;;;26.40;1.00;;;;;;5049593;28;20060;-59
2022/09/07 10:09:55;;;;;;;3.60;1.30;;;26.40;99.90;;;;;;5041274;28;20045;-58
2022/09/07 10:12:35;;;;;;;4.30;1.30;;;26.60;52.80;;;;;;5041273;28;20080;-58
2022/09/07 10:15:05;;;;;;;5.53;1.40;;;26.60;34.00;;;;;;5053406;28;20111;-57
2022/09/07 10:17:48;;;;;;;2.78;1.25;;;26.50;1.00;;;;;;5054066;28;20520;-58
2022/09/07 10:20:14;;;;;;;3.03;1.20;;;26.30;49.10;;;;;;5034871;28;20049;-58
2022/09/07 10:22:42;;;;;;;3.30;1.30;;;26.00;1.00;;;;;;5053999;28;20067;-57
2022/09/07 10:25:40;;;;;;;3.15;1.52;;;25.70;65.80;;;;;;5035139;28;20119;-58
2022/09/07 10:28:11;;;;;;;3.08;1.42;;;25.40;1.00;;;;;;5054274;28;20143;-57
2022/09/07 10:30:53;;;;;;;2.03;1.08;;;25.00;1.00;;;;;;5045333;28;20041;-58
2022/09/07 10:33:24;;;;;;;4.38;1.20;;;25.20;1.00;;;;;;5047385;28;20454;-58
2022/09/07 10:36:23;;;;;;;4.55;1.30;;;25.30;1.00;;;;;;5053751;28;20041;-59
2022/09/07 10:38:59;;;;;;;1.60;1.10;;;25.30;1.00;;;;;;5052591;28;20536;-58
2022/09/07 10:41:56;;;;;;;1.77;1.20;;;25.70;1.00;;;;;;5037485;28;20136;-58
2022/09/07 10:44:44;;;;;;;5.55;1.88;;;25.80;1.00;;;;;;5050261;28;20029;-57
2022/09/07 10:47:31;;;;;;;7.47;1.38;;;25.50;99.90;;;;;;5053509;28;20047;-58
2022/09/07 10:50:22;;;;;;;4.38;1.50;;;25.40;99.90;;;;;;5046613;28;20047;-58
2022/09/07 10:53:07;;;;;;;2.28;1.50;;;25.00;99.90;;;;;;5024606;28;20045;-58
2022/09/07 10:55:38;;;;;;;3.70;1.33;;;24.40;99.90;;;;;;5034057;28;20044;-58
2022/09/07 10:58:28;;;;;;;3.35;1.30;;;24.10;1.00;;;;;;5053750;28;20433;-57
2022/09/07 11:01:12;;;;;;;4.72;1.40;;;24.10;1.00;;;;;;5051345;28;20045;-57
2022/09/07 11:03:49;;;;;;;6.80;1.42;;;24.20;99.90;;;;;;5052627;28;20086;-58
2022/09/07 11:06:38;;;;;;;3.85;1.48;;;24.00;99.90;;;;;;5034965;28;20442;-58
2022/09/07 11:09:30;;;;;;;3.45;1.73;;;23.90;99.90;;;;;;5036037;28;20055;-57
2022/09/07 11:11:59;;;;;;;3.67;1.73;;;23.90;99.90;;;;;;5053535;28;20531;-58
2022/09/07 11:14:27;;;;;;;2.00;1.58;;;23.90;99.90;;;;;;5046009;28;20125;-57
2022/09/07 11:16:58;;;;;;;4.57;1.95;;;23.80;99.90;;;;;;5052961;28;20490;-58
2022/09/07 11:19:42;;;;;;;2.97;1.77;;;23.90;99.90;;;;;;5038584;28;20048;-57
2022/09/07 11:22:25;;;;;;;3.78;1.80;;;23.80;99.90;;;;;;5033662;28;20060;-58
2022/09/07 11:25:25;;;;;;;3.78;1.70;;;23.70;99.90;;;;;;5016105;28;20116;-58
2022/09/07 11:28:05;;;;;;;3.92;1.60;;;24.10;99.90;;;;;;5033567;28;20461;-57
2022/09/07 11:30:34;;;;;;;3.47;1.70;;;24.00;1.00;;;;;;5041063;28;20444;-59
2022/09/07 11:33:22;;;;;;;3.38;1.60;;;24.10;1.00;;;;;;5052919;28;20037;-58
2022/09/07 11:35:53;;;;;;;1.95;1.75;;;23.80;1.00;;;;;;5052905;28;20033;-57
2022/09/07 11:38:27;;;;;;;3.40;2.03;;;23.60;1.00;;;;;;5052876;28;20076;-58
2022/09/07 11:40:58;;;;;;;4.32;1.88;;;23.40;99.90;;;;;;5052795;28;20114;-57
2022/09/07 11:43:33;;;;;;;3.05;2.00;;;23.70;1.00;;;;;;5037943;28;20402;-57
2022/09/07 11:46:04;;;;;;;5.00;2.25;;;23.70;99.90;;;;;;5048817;28;20098;-57
2022/09/07 11:48:35;;;;;;;2.90;2.00;;;23.80;1.00;;;;;;5052887;28;20041;-58
2022/09/07 11:51:29;;;;;;;3.67;2.03;;;23.70;99.90;;;;;;5052707;28;20036;-58
2022/09/07 11:54:01;;;;;;;3.90;2.35;;;23.70;99.90;;;;;;5030209;28;20052;-58
2022/09/07 11:56:34;;;;;;;5.35;2.30;;;23.50;62.20;;;;;;5049420;28;20084;-57
2022/09/07 11:59:02;;;;;;;4.82;2.60;;;23.40;99.90;;;;;;5034895;28;20068;-57
2022/09/07 12:01:47;;;;;;;5.13;2.50;;;23.50;1.00;;;;;;5045032;28;20041;-59
2022/09/07 12:04:46;;;;;;;3.45;2.85;;;23.60;1.00;;;;;;5051483;28;20061;-58
2022/09/07 12:07:35;;;;;;;4.03;2.88;;;23.70;69.40;;;;;;5035132;28;20037;-59
2022/09/07 12:10:17;;;;;;;4.85;3.38;;;23.60;8.20;;;;;;5036210;28;20494;-57
2022/09/07 12:13:06;;;;;;;4.30;3.03;;;23.40;99.70;;;;;;5033717;28;20045;-58
2022/09/07 12:16:06;;;;;;;4.82;3.75;;;23.90;99.90;;;;;;5019069;28;20502;-59
2022/09/07 12:19:05;;;;;;;4.45;2.22;;;24.00;99.90;;;;;;5048163;28;20045;-57
2022/09/07 12:21:46;;;;;;;9.45;2.90;;;24.00;62.20;;;;;;5033425;28;20406;-58
2022/09/07 12:24:48;;;;;;;6.25;3.47;;;24.00;99.90;;;;;;5052236;28;20182;-58
2022/09/07 12:27:19;;;;;;;4.25;3.40;;;24.00;13.40;;;;;;5029686;28;20057;-58
2022/09/07 12:30:11;;;;;;;7.15;4.10;;;24.20;50.50;;;;;;5032256;28;20059;-58
2022/09/07 12:32:55;;;;;;;6.30;3.95;;;24.10;1.00;;;;;;4997227;28;20103;-58
2022/09/07 12:35:32;;;;;;;4.97;3.05;;;24.30;1.00;;;;;;5038809;28;20047;-58
2022/09/07 12:37:59;;;;;;;6.68;3.40;;;24.20;52.70;;;;;;5038625;28;20056;-57
2022/09/07 12:40:28;;;;;;;4.32;3.47;;;24.20;1.00;;;;;;5032103;28;20526;-58
2022/09/07 12:43:12;;;;;;;6.20;4.63;;;24.40;99.90;;;;;;5031731;28;20121;-58
2022/09/07 12:45:37;;;;;;;7.25;4.50;;;24.40;99.90;;;;;;5016627;28;20059;-58
2022/09/07 12:48:17;;;;;;;6.78;4.40;;;24.40;93.90;;;;;;5052016;28;20120;-57
2022/09/07 12:51:01;;;;;;;6.43;3.85;;;24.20;99.90;;;;;;5051564;28;20044;-58
2022/09/07 12:53:34;;;;;;;8.07;4.40;;;24.40;99.90;;;;;;5031994;28;20060;-59
2022/09/07 12:56:17;;;;;;;5.95;4.32;;;24.50;4.20;;;;;;5032944;28;20074;-59
2022/09/07 12:59:02;;;;;;;8.00;4.72;;;24.60;1.00;;;;;;5031301;28;20116;-58
2022/09/07 13:01:53;;;;;;;8.05;5.13;;;24.50;99.90;;;;;;5051609;28;20040;-58
2022/09/07 13:04:40;;;;;;;5.03;4.53;;;24.50;99.90;;;;;;5012954;28;20794;-58
2022/09/07 13:07:36;;;;;;;5.72;4.00;;;24.60;99.90;;;;;;5048409;28;20048;-58
2022/09/07 13:10:15;;;;;;;7.10;4.15;;;24.60;99.90;;;;;;5041507;28;20029;-58
2022/09/07 13:12:46;;;;;;;7.53;4.20;;;24.60;1.00;;;;;;5051263;28;20041;-57